Time;durP1;ratioP1;P1;durP2;ratioP2;P2;SDS_P1;SDS_P2;PMS_P1;PMS_P2;Temp;Humidity;BMP_temperature;BMP_pressure;BME280_temperature;BME280_humidity;BME280_pressure;Samples;Min_cycle;Max_cycle;Signal;HPM_P1;HPM_P2
2022/11/23 00:01:45;;;;;;;13.27;2.90;;;;;;;7.46;76.72;99268.44;4186143;28;20045;-64
2022/11/23 00:03:50;;;;;;;10.55;5.07;;;;;;;7.46;76.90;99262.38;4183230;28;20037;-64
2022/11/23 00:05:53;;;;;;;14.95;2.83;;;;;;;7.42;76.93;99265.81;4197066;28;20044;-65
2022/11/23 00:07:57;;;;;;;8.48;2.58;;;;;;;7.32;77.39;99267.47;4189346;28;20043;-65
2022/11/23 00:10:00;;;;;;;7.45;2.13;;;;;;;7.28;77.68;99269.13;4181436;28;20095;-64
2022/11/23 00:12:03;;;;;;;12.90;3.60;;;;;;;7.39;77.26;99260.59;4181601;28;20102;-65
2022/11/23 00:14:06;;;;;;;10.80;3.15;;;;;;;7.31;77.26;99260.53;4184216;28;20063;-65
2022/11/23 00:16:12;;;;;;;7.45;2.97;;;;;;;7.33;76.95;99267.47;4180065;28;20462;-65
2022/11/23 00:18:15;;;;;;;11.25;2.75;;;;;;;7.40;76.75;99259.75;4181228;28;20132;-65
2022/11/23 00:20:18;;;;;;;9.13;2.55;;;;;;;7.36;77.46;99258.00;4181169;28;20037;-64
2022/11/23 00:22:21;;;;;;;10.77;2.92;;;;;;;7.34;77.04;99258.88;4185673;28;20058;-65
2022/11/23 00:24:25;;;;;;;6.30;2.40;;;;;;;7.35;76.75;99259.72;4186453;28;20045;-65
2022/11/23 00:26:28;;;;;;;8.85;2.72;;;;;;;7.43;76.22;99259.78;4186776;28;20450;-65
2022/11/23 00:28:31;;;;;;;11.05;3.58;;;;;;;7.33;76.88;99258.84;4183950;28;20044;-65
2022/11/23 00:30:34;;;;;;;8.05;3.17;;;;;;;7.41;76.50;99266.66;4196130;28;20528;-64
2022/11/23 00:32:37;;;;;;;7.43;2.30;;;;;;;7.31;76.52;99260.53;4191741;28;20033;-65
2022/11/23 00:34:41;;;;;;;12.95;3.05;;;;;;;7.30;76.85;99259.69;4187493;28;20047;-65
2022/11/23 00:36:44;;;;;;;11.10;3.10;;;;;;;7.34;76.35;99266.63;4189174;28;20048;-65
2022/11/23 00:38:48;;;;;;;8.77;2.50;;;;;;;7.36;76.77;99276.09;4196735;28;20047;-65
2022/11/23 00:40:59;;;;;;;9.20;2.75;;;;;;;7.32;76.46;99286.41;4195920;28;20033;-65
2022/11/23 00:43:02;;;;;;;5.45;2.17;;;;;;;7.31;76.83;99282.09;4185686;28;20049;-65
2022/11/23 00:45:07;;;;;;;11.68;3.10;;;;;;;7.38;76.50;99282.16;4185786;28;20041;-66
2022/11/23 00:47:09;;;;;;;8.07;2.20;;;;;;;7.37;76.33;99283.84;4186214;28;20041;-66
2022/11/23 00:49:12;;;;;;;7.78;2.58;;;;;;;7.28;75.88;99276.88;4179358;28;20494;-65
2022/11/23 00:51:17;;;;;;;7.80;2.40;;;;;;;7.22;75.81;99289.75;4180886;28;20037;-66
2022/11/23 00:53:20;;;;;;;18.98;3.72;;;;;;;7.19;76.63;99284.56;4180003;28;20043;-66
2022/11/23 00:55:23;;;;;;;10.00;2.55;;;;;;;7.21;76.44;99294.94;4186259;28;20067;-65
2022/11/23 00:57:27;;;;;;;7.72;2.90;;;;;;;7.19;76.57;99291.47;4192924;28;20045;-66
2022/11/23 00:59:30;;;;;;;7.18;2.70;;;;;;;7.16;76.59;99295.75;4179452;28;20055;-65
2022/11/23 01:01:36;;;;;;;7.75;2.38;;;;;;;7.16;77.09;99300.06;4179584;28;20036;-66
2022/11/23 01:03:40;;;;;;;9.60;2.75;;;;;;;7.23;76.72;99298.38;4184641;28;20033;-65
2022/11/23 01:05:43;;;;;;;7.88;2.58;;;;;;;7.32;76.46;99301.91;4188383;28;20041;-66
2022/11/23 01:07:46;;;;;;;9.93;3.55;;;;;;;7.23;76.53;99298.38;4179487;28;20037;-66
2022/11/23 01:09:49;;;;;;;8.63;2.67;;;;;;;7.22;76.91;99292.34;4179503;28;20562;-65
2022/11/23 01:11:53;;;;;;;7.35;2.47;;;;;;;7.30;76.49;99288.13;4179273;28;20037;-66
2022/11/23 01:14:00;;;;;;;7.38;2.88;;;;;;;7.35;76.07;99301.09;4200322;28;20059;-65
2022/11/23 01:16:03;;;;;;;13.02;3.13;;;;;;;7.21;76.57;99294.94;4187027;28;20037;-66
2022/11/23 01:18:06;;;;;;;6.82;2.25;;;;;;;7.21;77.05;99295.78;4185182;28;20095;-66
2022/11/23 01:20:09;;;;;;;10.70;2.40;;;;;;;7.19;76.78;99297.50;4180446;28;20044;-65
2022/11/23 01:22:15;;;;;;;8.60;2.65;;;;;;;7.14;77.06;99296.56;4190681;28;20047;-66
2022/11/23 01:24:20;;;;;;;5.97;1.92;;;;;;;7.15;77.53;99298.31;4201278;28;20063;-65
2022/11/23 01:26:23;;;;;;;10.15;2.40;;;;;;;7.22;77.01;99294.94;4195439;28;20044;-65
2022/11/23 01:28:26;;;;;;;8.95;2.30;;;;;;;7.26;77.15;99298.44;4192615;28;20044;-65
2022/11/23 01:30:30;;;;;;;6.97;2.25;;;;;;;7.26;76.39;99303.59;4181556;28;20044;-65
2022/11/23 01:32:33;;;;;;;10.10;3.83;;;;;;;7.32;76.58;99301.06;4187560;28;20429;-66
2022/11/23 01:34:36;;;;;;;7.55;3.03;;;;;;;7.24;76.92;99294.94;4184458;28;20036;-66
2022/11/23 01:36:39;;;;;;;7.53;1.90;;;;;;;7.22;76.92;99300.09;4180208;28;20059;-66
2022/11/23 01:38:43;;;;;;;4.65;1.58;;;;;;;7.21;77.09;99297.50;4195624;28;20028;-66
2022/11/23 01:40:46;;;;;;;8.98;2.30;;;;;;;7.25;77.00;99297.53;4168533;28;20052;-65
2022/11/23 01:42:53;;;;;;;7.35;1.73;;;;;;;7.31;76.94;99288.97;4188008;28;20107;-66
2022/11/23 01:45:30;;;;;;;6.18;1.88;;;;;;;7.34;76.51;99295.06;4197284;28;20447;-66
2022/11/23 01:47:35;;;;;;;7.13;2.03;;;;;;;7.38;76.66;99295.09;4182049;28;20075;-65
2022/11/23 01:49:40;;;;;;;6.20;2.10;;;;;;;7.36;76.97;99301.94;4194102;28;20040;-65
2022/11/23 01:51:46;;;;;;;7.57;2.20;;;;;;;7.37;76.40;99298.50;4183750;28;20037;-65
2022/11/23 01:53:54;;;;;;;4.38;1.55;;;;;;;7.38;76.57;99300.25;4185222;28;20477;-66
2022/11/23 01:56:00;;;;;;;8.98;2.17;;;;;;;7.45;76.25;99304.63;4184834;28;20043;-65
2022/11/23 01:58:06;;;;;;;10.05;1.95;;;;;;;7.42;76.14;99302.88;4194628;28;20040;-65
2022/11/23 02:00:09;;;;;;;5.30;2.00;;;;;;;7.45;76.46;99300.31;4180199;28;20063;-65
2022/11/23 02:02:17;;;;;;;7.35;2.20;;;;;;;7.52;76.13;99301.25;4190129;28;20042;-66
2022/11/23 02:04:26;;;;;;;6.57;2.00;;;;;;;7.46;76.65;99298.56;4186166;28;20037;-65
2022/11/23 02:06:31;;;;;;;9.10;2.80;;;;;;;7.48;76.24;99294.31;4193324;28;20440;-65
2022/11/23 02:08:37;;;;;;;8.35;2.33;;;;;;;7.55;76.21;99296.09;4184280;28;20033;-65
2022/11/23 02:10:40;;;;;;;9.93;2.75;;;;;;;7.52;76.03;99298.66;4179398;28;20037;-65
2022/11/23 02:12:45;;;;;;;7.78;1.85;;;;;;;7.53;76.50;99294.34;4191335;28;20059;-65
2022/11/23 02:14:48;;;;;;;6.03;2.53;;;;;;;7.55;75.62;99295.19;4192285;28;20044;-65
2022/11/23 02:16:54;;;;;;;9.10;1.90;;;;;;;7.53;76.02;99300.34;4192775;28;20065;-65
2022/11/23 02:18:57;;;;;;;7.10;2.03;;;;;;;7.50;76.59;99296.06;4182324;28;20063;-66
2022/11/23 02:21:03;;;;;;;9.38;1.98;;;;;;;7.53;76.25;99300.34;4185525;28;20041;-65
2022/11/23 02:23:18;;;;;;;10.88;2.83;;;;;;;7.58;76.03;99298.69;4198166;28;20083;-66
2022/11/23 02:25:28;;;;;;;8.25;2.35;;;;;;;7.55;76.45;99297.78;4183110;28;20044;-66
2022/11/23 02:27:33;;;;;;;5.40;2.20;;;;;;;7.59;76.00;99295.22;4188873;28;20033;-66
2022/11/23 02:29:36;;;;;;;5.57;1.70;;;;;;;7.56;75.82;99295.22;4184103;28;20036;-65
2022/11/23 02:31:39;;;;;;;9.90;2.45;;;;;;;7.56;75.74;99294.34;4193516;28;20052;-65
2022/11/23 02:33:41;;;;;;;6.15;1.77;;;;;;;7.54;75.98;99302.09;4165625;28;20100;-66
2022/11/23 02:35:50;;;;;;;11.40;2.50;;;;;;;7.67;75.34;99303.06;4185409;28;20139;-65
2022/11/23 02:37:53;;;;;;;4.88;1.48;;;;;;;7.54;75.88;99302.09;4184798;28;20048;-66
2022/11/23 02:39:58;;;;;;;10.52;2.28;;;;;;;7.55;76.08;99298.66;4186537;28;20040;-65
2022/11/23 02:42:01;;;;;;;;;;;;;;;7.57;75.87;99293.50;4188018;28;20045;-65
2022/11/23 02:44:09;;;;;;;8.73;2.95;;;;;;;7.56;75.40;99292.63;4182361;28;19927;-65
2022/11/23 02:46:12;;;;;;;8.65;2.60;;;;;;;7.63;75.65;99296.97;4197440;28;20486;-65
2022/11/23 02:48:15;;;;;;;8.13;2.20;;;;;;;7.65;75.13;99290.13;4184228;28;20055;-65
2022/11/23 02:50:18;;;;;;;10.75;2.28;;;;;;;7.63;75.53;99294.41;4190478;28;20040;-65
2022/11/23 02:52:21;;;;;;;6.10;2.00;;;;;;;7.57;75.67;99286.59;4185485;28;20056;-65
2022/11/23 02:54:24;;;;;;;7.88;2.17;;;;;;;7.62;75.94;99290.09;4183558;28;20064;-64
2022/11/23 02:56:27;;;;;;;7.78;2.30;;;;;;;7.58;76.25;99288.34;4185962;28;20379;-65
2022/11/23 02:58:30;;;;;;;4.22;1.75;;;;;;;7.63;75.52;99286.63;4185328;28;20029;-65
2022/11/23 03:00:34;;;;;;;9.20;2.65;;;;;;;7.66;75.79;99280.63;4190621;28;20037;-65
2022/11/23 03:02:37;;;;;;;;;;;;;;;7.49;76.21;99277.91;4179447;28;20041;-65
2022/11/23 03:04:40;;;;;;;5.97;2.03;;;;;;;7.55;76.18;99287.44;4192801;28;19943;-65
2022/11/23 03:06:43;;;;;;;6.93;2.53;;;;;;;7.53;76.19;99274.50;4197154;28;20072;-66
2022/11/23 03:08:47;;;;;;;9.93;2.85;;;;;;;7.60;75.83;99281.44;4181225;28;20045;-65
2022/11/23 03:10:51;;;;;;;7.90;2.53;;;;;;;7.55;76.23;99285.75;4184415;28;20489;-65
2022/11/23 03:12:56;;;;;;;7.90;2.35;;;;;;;7.65;76.06;99279.78;4188877;28;20055;-65
2022/11/23 03:15:00;;;;;;;6.32;2.30;;;;;;;7.61;76.21;99277.16;4191986;28;20127;-65
2022/11/23 03:17:07;;;;;;;4.10;1.75;;;;;;;7.63;76.33;99286.63;4193852;28;20035;-65
2022/11/23 03:19:15;;;;;;;8.80;2.30;;;;;;;7.78;75.54;99283.31;4193966;28;20111;-65
2022/11/23 03:21:18;;;;;;;9.40;2.25;;;;;;;7.66;75.76;99291.84;4196572;28;20029;-65
2022/11/23 03:23:21;;;;;;;11.13;2.53;;;;;;;7.79;75.58;99287.59;4185703;28;20029;-66
2022/11/23 03:25:24;;;;;;;3.92;1.52;;;;;;;7.63;76.14;99288.38;4187444;28;20063;-66
2022/11/23 03:27:32;;;;;;;8.38;1.70;;;;;;;7.61;76.17;99288.38;4171856;28;20037;-65
2022/11/23 03:29:35;;;;;;;9.02;1.80;;;;;;;7.61;76.12;99293.53;4196805;28;20040;-66
2022/11/23 03:31:45;;;;;;;8.32;1.83;;;;;;;7.68;76.26;99291.84;4193454;28;20067;-66
2022/11/23 03:33:51;;;;;;;8.05;1.85;;;;;;;7.62;76.26;99287.50;4192310;28;20045;-66
2022/11/23 03:35:55;;;;;;;5.82;3.33;;;;;;;7.66;75.99;99289.25;4170495;28;20046;-66
2022/11/23 03:38:02;;;;;;;6.88;1.77;;;;;;;7.71;75.87;99289.31;4184859;28;20045;-65
2022/11/23 03:40:05;;;;;;;4.53;1.60;;;;;;;7.67;75.78;99290.13;4192546;28;20437;-65
2022/11/23 03:42:26;;;;;;;10.43;2.22;;;;;;;7.71;75.12;99298.75;4198367;28;20036;-65
2022/11/23 03:44:30;;;;;;;5.90;2.28;;;;;;;7.66;75.69;99291.84;4188528;28;20463;-66
2022/11/23 03:46:33;;;;;;;7.75;2.05;;;;;;;7.71;75.78;99289.31;4171979;28;20034;-65
2022/11/23 03:48:37;;;;;;;5.13;2.08;;;;;;;7.66;75.76;99294.41;4165006;28;20056;-65
2022/11/23 03:50:41;;;;;;;7.82;1.88;;;;;;;7.64;75.78;99292.69;4196802;28;20037;-65
2022/11/23 03:52:44;;;;;;;8.30;2.53;;;;;;;7.62;76.07;99290.09;4181682;28;20049;-65
2022/11/23 03:54:49;;;;;;;11.25;2.35;;;;;;;7.68;75.87;99290.13;4186794;28;20041;-65
2022/11/23 03:56:52;;;;;;;6.28;2.10;;;;;;;7.71;76.10;99283.25;4181365;28;20040;-65
2022/11/23 03:58:56;;;;;;;6.80;2.13;;;;;;;7.75;75.34;99295.34;4165587;28;20041;-65
2022/11/23 04:00:59;;;;;;;6.88;1.95;;;;;;;7.69;75.83;99294.47;4196050;28;20075;-65
2022/11/23 04:03:03;;;;;;;6.35;2.45;;;;;;;7.82;75.78;99286.78;4182017;28;20044;-65
2022/11/23 04:05:26;;;;;;;9.77;2.40;;;;;;;7.77;75.53;99288.44;4188947;28;20051;-65
2022/11/23 04:08:03;;;;;;;8.38;2.20;;;;;;;7.76;75.98;99291.91;4158134;28;20052;-66
2022/11/23 04:10:06;;;;;;;8.15;2.55;;;;;;;7.79;75.31;99291.94;4196160;28;20128;-66
2022/11/23 04:12:32;;;;;;;9.65;2.55;;;;;;;7.74;75.48;99298.78;4186729;28;20127;-66
2022/11/23 04:14:35;;;;;;;7.07;1.80;;;;;;;7.73;75.42;99292.75;4185571;28;20037;-66
2022/11/23 04:16:38;;;;;;;7.63;2.58;;;;;;;7.72;76.00;99298.78;4187097;28;20123;-66
2022/11/23 04:18:41;;;;;;;8.77;2.42;;;;;;;7.83;75.76;99288.50;4184766;28;20037;-66
2022/11/23 04:20:45;;;;;;;6.95;2.58;;;;;;;7.74;75.55;99291.91;4192021;28;20068;-66
2022/11/23 04:22:48;;;;;;;7.00;2.05;;;;;;;7.80;75.77;99291.94;4196308;28;20120;-66
2022/11/23 04:24:53;;;;;;;7.03;2.30;;;;;;;7.85;75.21;99287.63;4194032;28;20476;-66
2022/11/23 04:26:58;;;;;;;9.23;2.35;;;;;;;7.83;75.18;99291.09;4186037;28;20525;-66
2022/11/23 04:29:00;;;;;;;7.20;2.10;;;;;;;7.80;75.36;99286.75;4192861;28;20090;-66
2022/11/23 04:31:05;;;;;;;9.17;2.23;;;;;;;7.83;75.06;99288.50;4179748;28;20066;-66
2022/11/23 04:33:19;;;;;;;5.70;1.88;;;;;;;7.83;75.43;99288.50;4179275;28;20337;-65
2022/11/23 04:35:22;;;;;;;7.88;2.22;;;;;;;7.87;75.55;99290.28;4195260;28;20453;-65
2022/11/23 04:37:26;;;;;;;11.65;2.65;;;;;;;7.84;75.41;99285.03;4179529;28;20446;-65
2022/11/23 04:39:29;;;;;;;7.05;1.80;;;;;;;7.82;75.69;99286.78;4179738;28;20037;-65
2022/11/23 04:41:48;;;;;;;9.25;2.55;;;;;;;7.81;76.14;99282.44;4195908;28;20044;-65
2022/11/23 04:43:51;;;;;;;5.97;1.70;;;;;;;7.83;75.68;99285.94;4178239;28;20037;-65
2022/11/23 04:45:54;;;;;;;6.05;2.00;;;;;;;7.88;75.62;99286.81;4164084;28;20068;-65
2022/11/23 04:48:03;;;;;;;5.97;2.35;;;;;;;7.89;75.38;99285.97;4194123;28;20052;-65
2022/11/23 04:50:08;;;;;;;7.30;2.03;;;;;;;7.84;75.49;99282.47;4179731;28;20094;-65
2022/11/23 04:52:11;;;;;;;7.10;2.72;;;;;;;8.00;74.73;99281.72;4179862;28;20039;-65
2022/11/23 04:54:20;;;;;;;4.88;1.90;;;;;;;7.82;75.14;99290.22;4181801;28;20129;-66
2022/11/23 04:56:29;;;;;;;6.68;1.80;;;;;;;7.70;75.26;99295.31;4187162;28;20115;-65
2022/11/23 04:58:35;;;;;;;7.57;2.25;;;;;;;7.77;75.30;99288.44;4196091;28;20123;-65
2022/11/23 05:00:38;;;;;;;11.63;2.47;;;;;;;7.81;75.18;99282.44;4178500;28;20045;-65
2022/11/23 05:02:41;;;;;;;10.50;2.33;;;;;;;7.89;75.29;99277.34;4181039;28;20033;-65
2022/11/23 05:04:54;;;;;;;5.93;1.90;;;;;;;7.92;74.97;99280.78;4177431;28;20494;-65
2022/11/23 05:07:02;;;;;;;12.95;2.90;;;;;;;7.84;74.79;99277.28;4187700;28;20048;-65
2022/11/23 05:09:06;;;;;;;9.35;2.25;;;;;;;7.88;74.69;99284.22;4179495;28;20465;-65
2022/11/23 05:11:28;;;;;;;7.40;2.25;;;;;;;7.89;75.04;99282.50;4180581;28;20575;-65
2022/11/23 05:13:35;;;;;;;9.13;2.00;;;;;;;7.86;74.86;99281.63;4194392;28;20047;-65
2022/11/23 05:15:39;;;;;;;5.53;1.77;;;;;;;7.84;74.81;99287.63;4203918;28;20055;-65
2022/11/23 05:17:42;;;;;;;6.45;2.33;;;;;;;7.81;75.26;99279.84;4185412;28;20124;-65
2022/11/23 05:19:52;;;;;;;8.30;2.65;;;;;;;7.89;75.16;99285.97;4181030;28;20550;-65
2022/11/23 05:21:56;;;;;;;11.75;2.92;;;;;;;7.86;74.78;99281.63;4193261;28;20039;-65
2022/11/23 05:23:59;;;;;;;7.68;1.92;;;;;;;7.86;74.89;99283.34;4193669;28;20041;-65
2022/11/23 05:26:04;;;;;;;6.90;1.90;;;;;;;7.85;75.00;99287.63;4195299;28;20041;-65
2022/11/23 05:28:07;;;;;;;11.27;2.17;;;;;;;7.82;74.15;99279.00;4187212;28;20041;-65
2022/11/23 05:30:32;;;;;;;10.70;2.92;;;;;;;7.84;74.36;99290.22;4187474;28;20159;-65
2022/11/23 05:32:36;;;;;;;;;;;;;;;7.78;74.31;99288.50;4194461;28;20494;-65
2022/11/23 05:34:39;;;;;;;5.93;2.45;;;;;;;7.80;74.45;99283.31;4188042;28;19943;-65
2022/11/23 05:36:45;;;;;;;6.75;1.77;;;;;;;7.80;74.40;99280.72;4198078;28;20522;-65
2022/11/23 05:38:48;;;;;;;8.43;2.88;;;;;;;7.83;74.66;99284.19;4199158;28;20040;-65
2022/11/23 05:40:59;;;;;;;10.50;2.25;;;;;;;7.94;74.45;99279.06;4190851;28;20068;-65
2022/11/23 05:43:02;;;;;;;8.63;2.15;;;;;;;7.93;73.97;99277.38;4191923;28;20048;-65
2022/11/23 05:45:06;;;;;;;7.03;2.28;;;;;;;7.89;74.14;99272.16;4185488;28;20049;-65
2022/11/23 05:47:18;;;;;;;5.07;1.77;;;;;;;7.98;73.95;99278.25;4190103;28;20742;-65
2022/11/23 05:49:22;;;;;;;8.18;3.33;;;;;;;7.93;74.14;99276.47;4174374;28;20068;-66
2022/11/23 05:51:25;;;;;;;6.38;2.55;;;;;;;7.95;74.08;99283.41;4190147;28;20530;-66
2022/11/23 05:53:28;;;;;;;6.47;2.13;;;;;;;7.97;73.45;99281.69;4186031;28;20036;-66
2022/11/23 05:55:39;;;;;;;12.30;3.08;;;;;;;7.96;73.44;99285.13;4195997;28;20036;-66
2022/11/23 05:57:42;;;;;;;4.65;1.73;;;;;;;7.95;73.28;99278.22;4181422;28;20518;-66
2022/11/23 05:59:46;;;;;;;6.47;2.35;;;;;;;7.98;73.60;99293.75;4182281;28;20530;-66
2022/11/23 06:01:56;;;;;;;6.30;1.90;;;;;;;8.04;73.28;99287.75;4186443;28;20498;-66
2022/11/23 06:04:06;;;;;;;5.90;2.00;;;;;;;8.00;73.07;99291.19;4175185;28;20490;-66
2022/11/23 06:06:15;;;;;;;7.15;2.03;;;;;;;7.93;73.40;99292.00;4165699;28;20069;-67
2022/11/23 06:08:18;;;;;;;6.28;2.28;;;;;;;7.98;73.46;99288.59;4165611;28;20137;-63
2022/11/23 06:10:21;;;;;;;6.10;1.90;;;;;;;7.90;73.98;99295.47;4182140;28;20037;-68
2022/11/23 06:12:27;;;;;;;9.55;3.63;;;;;;;7.90;73.53;99294.56;4181786;28;20036;-61
2022/11/23 06:14:30;;;;;;;8.80;1.90;;;;;;;7.98;74.57;99296.34;4189342;28;20087;-62
2022/11/23 06:16:34;;;;;;;11.80;2.80;;;;;;;8.01;75.05;99296.38;4188203;28;20044;-63
2022/11/23 06:18:49;;;;;;;9.00;2.90;;;;;;;8.50;78.06;99292.34;4182154;28;20044;-62
2022/11/23 06:20:53;;;;;;;8.82;2.30;;;;;;;8.93;76.60;99292.44;4181974;28;20071;-62
2022/11/23 06:22:58;;;;;;;9.18;2.20;;;;;;;8.90;72.53;99295.88;4183056;28;20043;-62
2022/11/23 06:25:01;;;;;;;4.85;1.73;;;;;;;8.70;71.44;99300.16;4196047;28;20040;-62
2022/11/23 06:27:20;;;;;;;7.85;2.33;;;;;;;8.47;71.70;99298.38;4181837;28;20041;-62
2022/11/23 06:29:25;;;;;;;6.07;2.17;;;;;;;8.45;71.41;99294.03;4198425;28;20482;-62
2022/11/23 06:31:28;;;;;;;12.50;2.58;;;;;;;8.26;71.92;99299.09;4198283;28;20041;-62
2022/11/23 06:33:31;;;;;;;10.13;1.90;;;;;;;8.26;72.22;99298.22;4196414;28;20033;-62
2022/11/23 06:35:34;;;;;;;6.13;1.75;;;;;;;8.13;71.58;99295.59;4190621;28;20036;-62
2022/11/23 06:37:38;;;;;;;5.95;1.77;;;;;;;8.07;71.99;99292.09;4189835;28;20098;-62
2022/11/23 06:39:41;;;;;;;12.07;2.88;;;;;;;7.98;72.18;99287.72;4181571;28;20048;-62
2022/11/23 06:41:44;;;;;;;9.68;2.17;;;;;;;8.01;72.51;99298.94;4198345;28;20039;-62
2022/11/23 06:43:47;;;;;;;5.95;1.95;;;;;;;7.88;72.70;99291.13;4188311;28;20442;-62
2022/11/23 06:46:02;;;;;;;8.25;1.90;;;;;;;8.01;71.91;99298.94;4191331;28;20067;-62
2022/11/23 06:48:06;;;;;;;5.15;1.73;;;;;;;8.00;71.94;99301.53;4197715;28;20048;-62
2022/11/23 06:50:15;;;;;;;7.88;2.20;;;;;;;7.85;72.30;99294.56;4198063;28;20082;-62
2022/11/23 06:52:20;;;;;;;5.03;2.45;;;;;;;7.84;72.52;99303.16;4198124;28;20139;-62
2022/11/23 06:54:26;;;;;;;8.70;2.30;;;;;;;7.98;74.60;99308.44;4197228;28;20086;-62
2022/11/23 06:56:31;;;;;;;5.25;1.98;;;;;;;8.01;73.59;99308.44;4190337;28;20127;-62
2022/11/23 06:58:34;;;;;;;7.53;2.47;;;;;;;8.03;73.00;99309.31;4172963;28;20041;-62
2022/11/23 07:00:41;;;;;;;8.90;2.20;;;;;;;7.93;72.79;99315.28;4181462;28;20041;-62
2022/11/23 07:02:51;;;;;;;6.57;1.65;;;;;;;7.83;72.69;99316.97;4181234;28;20116;-62
2022/11/23 07:04:56;;;;;;;9.63;1.77;;;;;;;7.75;73.30;99326.41;4185473;28;20041;-62
2022/11/23 07:06:59;;;;;;;6.88;2.38;;;;;;;7.74;73.01;99322.06;4182264;28;20423;-62
2022/11/23 07:09:12;;;;;;;5.25;2.15;;;;;;;7.71;73.32;99315.16;4197766;28;20116;-62
2022/11/23 07:11:39;;;;;;;;;;;;;;;7.63;73.16;99317.69;4174681;28;20088;-62
2022/11/23 07:13:42;;;;;;;7.50;1.77;;;;;;;7.61;73.46;99322.00;4180418;28;19950;-62
2022/11/23 07:15:45;;;;;;;5.45;1.98;;;;;;;7.67;72.86;99324.63;4164537;28;20091;-61
2022/11/23 07:17:48;;;;;;;8.38;1.83;;;;;;;7.71;72.87;99328.09;4183946;28;20041;-62
2022/11/23 07:19:55;;;;;;;8.13;2.25;;;;;;;7.76;73.21;99328.13;4180955;28;20049;-61
2022/11/23 07:21:58;;;;;;;5.32;1.85;;;;;;;7.64;72.99;99323.75;4197566;28;20033;-62
2022/11/23 07:24:01;;;;;;;8.38;1.95;;;;;;;7.60;73.05;99327.16;4179977;28;20039;-61
2022/11/23 07:26:04;;;;;;;8.40;2.33;;;;;;;7.73;72.53;99331.56;4180906;28;20052;-61
2022/11/23 07:28:11;;;;;;;7.75;2.38;;;;;;;7.68;72.72;99338.41;4180958;28;20060;-62
2022/11/23 07:30:15;;;;;;;4.13;1.75;;;;;;;7.57;73.03;99333.16;4167456;28;20110;-62
2022/11/23 07:32:18;;;;;;;7.32;2.03;;;;;;;7.55;73.11;99339.16;4193300;28;20499;-61
2022/11/23 07:34:21;;;;;;;7.45;1.90;;;;;;;7.50;72.86;99341.72;4180013;28;20061;-62
2022/11/23 07:36:24;;;;;;;5.47;1.70;;;;;;;7.49;72.90;99345.16;4180820;28;20049;-62
2022/11/23 07:38:27;;;;;;;8.35;2.50;;;;;;;7.54;72.83;99343.47;4180741;28;20140;-62
2022/11/23 07:40:30;;;;;;;5.90;2.00;;;;;;;7.47;72.49;99352.88;4179680;28;20128;-63
2022/11/23 07:42:32;;;;;;;5.03;1.95;;;;;;;7.54;72.91;99350.38;4192025;28;20028;-62
2022/11/23 07:44:46;;;;;;;7.55;2.17;;;;;;;7.49;72.58;99352.91;4180885;28;20041;-62
2022/11/23 07:46:50;;;;;;;10.05;2.25;;;;;;;7.44;72.82;99350.28;4181849;28;20037;-62
2022/11/23 07:48:58;;;;;;;8.27;2.58;;;;;;;7.42;73.76;99353.72;4181772;28;20044;-62
2022/11/23 07:51:00;;;;;;;5.85;1.88;;;;;;;7.47;73.00;99352.88;4189962;28;20093;-62
2022/11/23 07:53:04;;;;;;;5.07;1.98;;;;;;;7.48;72.88;99348.59;4181748;28;20095;-62
2022/11/23 07:55:08;;;;;;;6.90;1.80;;;;;;;7.42;72.88;99353.72;4181001;28;20395;-61
2022/11/23 07:57:11;;;;;;;8.55;2.10;;;;;;;7.46;72.52;99355.47;4187612;28;20048;-62
2022/11/23 07:59:14;;;;;;;5.72;1.75;;;;;;;7.41;72.05;99354.56;4190626;28;20533;-62
2022/11/23 08:01:19;;;;;;;9.68;2.10;;;;;;;7.44;72.09;99359.78;4187381;28;20045;-62
2022/11/23 08:03:22;;;;;;;6.88;1.90;;;;;;;7.35;72.52;99357.97;4181715;28;20033;-65
2022/11/23 08:05:32;;;;;;;6.72;2.17;;;;;;;7.38;72.97;99355.41;4183280;28;20472;-65
2022/11/23 08:07:34;;;;;;;7.00;2.10;;;;;;;7.42;72.52;99358.91;4187165;28;20032;-59
2022/11/23 08:09:38;;;;;;;6.05;1.63;;;;;;;7.38;73.23;99362.31;4182842;28;20033;-59
2022/11/23 08:11:40;;;;;;;4.80;1.80;;;;;;;7.42;72.83;99358.91;4186854;28;20391;-59
2022/11/23 08:13:43;;;;;;;7.82;2.22;;;;;;;7.41;72.56;99359.75;4188943;28;20037;-59
2022/11/23 08:15:46;;;;;;;8.32;2.50;;;;;;;7.38;72.66;99351.97;4183026;28;20044;-61
2022/11/23 08:17:59;;;;;;;4.13;1.80;;;;;;;7.36;73.06;99348.47;4185713;28;20441;-62
2022/11/23 08:20:01;;;;;;;5.25;1.92;;;;;;;7.41;72.98;99352.00;4188897;28;20510;-63
2022/11/23 08:22:04;;;;;;;6.20;2.10;;;;;;;7.48;72.02;99353.78;4191565;28;20049;-61
2022/11/23 08:24:08;;;;;;;11.02;3.22;;;;;;;7.39;72.01;99353.69;4180627;28;20056;-58
2022/11/23 08:26:10;;;;;;;3.17;1.73;;;;;;;7.44;72.21;99345.09;4179964;28;20094;-61
2022/11/23 08:28:15;;;;;;;7.70;2.65;;;;;;;7.37;72.44;99350.22;4188304;28;20036;-62
2022/11/23 08:30:18;;;;;;;7.50;2.67;;;;;;;7.54;72.09;99348.66;4187332;28;20389;-66
2022/11/23 08:32:21;;;;;;;9.55;2.35;;;;;;;7.55;71.91;99352.97;4185160;28;20050;-69
2022/11/23 08:34:25;;;;;;;6.50;2.03;;;;;;;7.43;71.92;99352.84;4162478;28;20072;-63
2022/11/23 08:36:28;;;;;;;6.45;2.08;;;;;;;7.47;72.11;99352.88;4184680;28;20047;-64
2022/11/23 08:38:31;;;;;;;5.93;1.88;;;;;;;7.51;72.23;99348.63;4197597;28;20071;-66
2022/11/23 08:40:34;;;;;;;10.68;2.20;;;;;;;7.61;71.32;99352.16;4193603;28;20046;-62
2022/11/23 08:42:37;;;;;;;10.35;2.13;;;;;;;7.64;71.72;99339.25;4189177;28;20564;-60
2022/11/23 08:44:40;;;;;;;7.15;2.20;;;;;;;7.67;71.59;99352.22;4194598;28;20044;-67
2022/11/23 08:46:43;;;;;;;4.47;1.67;;;;;;;7.60;71.83;99353.88;4180905;28;20041;-71
2022/11/23 08:48:46;;;;;;;6.30;1.70;;;;;;;7.79;70.85;99348.84;4180815;28;20099;-62
2022/11/23 08:50:50;;;;;;;9.50;1.90;;;;;;;7.74;71.05;99353.09;4181778;28;20045;-62
2022/11/23 08:52:55;;;;;;;9.18;2.05;;;;;;;7.75;71.32;99347.94;4182684;28;20036;-64
2022/11/23 08:54:57;;;;;;;8.85;2.20;;;;;;;7.75;71.63;99353.13;4185298;28;20429;-62
2022/11/23 08:57:00;;;;;;;7.70;3.08;;;;;;;7.80;70.88;99348.84;4180803;28;20045;-68
2022/11/23 08:59:03;;;;;;;11.32;2.38;;;;;;;7.77;71.13;99356.59;4194211;28;20436;-64
2022/11/23 09:01:08;;;;;;;5.28;1.95;;;;;;;7.73;71.55;99356.56;4195109;28;20052;-63
2022/11/23 09:03:11;;;;;;;8.48;2.50;;;;;;;7.92;70.75;99352.41;4186111;28;20041;-64
2022/11/23 09:05:13;;;;;;;9.02;2.40;;;;;;;7.80;71.02;99353.19;4191235;28;20444;-65
2022/11/23 09:07:18;;;;;;;6.95;2.05;;;;;;;7.78;71.17;99360.94;4185481;28;20544;-64
2022/11/23 09:09:21;;;;;;;7.75;2.03;;;;;;;7.82;71.16;99364.41;4183764;28;20033;-64
2022/11/23 09:11:25;;;;;;;7.20;1.90;;;;;;;7.80;70.63;99358.34;4181505;28;20036;-64
2022/11/23 09:13:28;;;;;;;6.55;2.28;;;;;;;7.83;71.05;99356.66;4179805;28;20438;-64
2022/11/23 09:15:31;;;;;;;6.38;1.80;;;;;;;7.93;70.99;99362.75;4180403;28;20025;-64
2022/11/23 09:17:34;;;;;;;8.57;3.15;;;;;;;7.99;70.39;99360.22;4187790;28;20043;-65
2022/11/23 09:19:36;;;;;;;7.60;2.28;;;;;;;8.06;70.15;99355.06;4191703;28;20040;-64
2022/11/23 09:21:41;;;;;;;6.22;1.90;;;;;;;8.02;70.31;99359.38;4183746;28;20037;-64
2022/11/23 09:23:45;;;;;;;8.65;2.60;;;;;;;8.00;70.31;99359.34;4181830;28;20063;-63
2022/11/23 09:25:49;;;;;;;8.02;2.75;;;;;;;8.03;70.42;99359.38;4196893;28;20045;-62
2022/11/23 09:27:57;;;;;;;11.02;2.55;;;;;;;8.15;70.66;99365.50;4195724;28;20086;-63
2022/11/23 09:30:00;;;;;;;8.75;2.58;;;;;;;8.19;70.40;99356.88;4197074;28;20037;-63
2022/11/23 09:32:03;;;;;;;5.95;2.60;;;;;;;8.19;69.86;99365.53;4190573;28;20394;-64
2022/11/23 09:34:06;;;;;;;10.57;2.60;;;;;;;8.32;69.14;99361.28;4186407;28;20036;-64
2022/11/23 09:36:09;;;;;;;8.48;3.15;;;;;;;8.25;69.20;99364.69;4180467;28;20090;-64
2022/11/23 09:38:12;;;;;;;9.15;3.22;;;;;;;8.28;68.99;99359.53;4179133;28;20049;-63
2022/11/23 09:40:17;;;;;;;8.02;2.25;;;;;;;8.31;69.44;99353.47;4179211;28;20045;-64
2022/11/23 09:42:55;;;;;;;9.32;2.95;;;;;;;8.43;69.17;99355.28;4183961;28;20044;-63
2022/11/23 09:45:14;;;;;;;8.10;2.90;;;;;;;8.51;68.75;99356.22;4170717;28;20548;-64
2022/11/23 09:47:42;;;;;;;9.15;2.60;;;;;;;8.47;68.49;99357.06;4184618;28;20067;-64
2022/11/23 09:49:56;;;;;;;6.68;1.85;;;;;;;8.37;68.68;99351.81;4180324;28;20441;-64
2022/11/23 09:51:59;;;;;;;8.20;2.53;;;;;;;8.41;68.39;99355.28;4180272;28;20449;-64
2022/11/23 09:54:05;;;;;;;12.52;3.03;;;;;;;8.46;68.35;99353.59;4178176;28;20548;-64
2022/11/23 09:56:17;;;;;;;5.70;2.20;;;;;;;8.50;68.72;99354.50;4187921;28;20040;-63
2022/11/23 09:58:22;;;;;;;8.88;2.60;;;;;;;8.65;67.84;99358.88;4187445;28;20569;-64